Time;durP1;ratioP1;P1;durP2;ratioP2;P2;SDS_P1;SDS_P2;PMS_P1;PMS_P2;Temp;Humidity;BMP_temperature;BMP_pressure;BME280_temperature;BME280_humidity;BME280_pressure;Samples;Min_cycle;Max_cycle;Signal;HPM_P1;HPM_P2
2022/11/01 00:03:02;;;;;;;26.17;10.83;;;12.60;34.70;;;;;;5053189;28;20433;-85
2022/11/01 00:05:27;;;;;;;24.83;11.73;;;12.60;36.20;;;;;;5050803;28;20457;-84
2022/11/01 00:07:53;;;;;;;28.50;12.57;;;12.60;34.30;;;;;;5034401;28;20395;-84
2022/11/01 00:10:50;;;;;;;30.63;12.47;;;12.60;34.90;;;;;;5038897;28;20585;-85
2022/11/01 00:13:50;;;;;;;19.23;11.80;;;12.60;34.70;;;;;;5040767;28;20199;-85
2022/11/01 00:16:17;;;;;;;26.80;11.70;;;12.60;31.80;;;;;;5055539;28;20432;-89
2022/11/01 00:18:50;;;;;;;18.43;10.10;;;12.60;31.50;;;;;;5037661;28;20476;-89
2022/11/01 00:21:20;;;;;;;29.00;11.97;;;12.60;32.20;;;;;;5056410;28;20930;-88
2022/11/01 00:23:56;;;;;;;20.77;11.00;;;12.60;36.10;;;;;;5037322;28;20501;-89
2022/11/01 00:30:20;;;;;;;21.87;10.60;;;12.60;30.00;;;;;;5050647;28;20498;-89
2022/11/01 00:32:50;;;;;;;18.07;10.40;;;12.60;29.00;;;;;;5046520;28;20464;-89
2022/11/01 00:35:20;;;;;;;22.47;10.97;;;12.60;27.60;;;;;;5043189;28;20418;-89
2022/11/01 00:37:46;;;;;;;28.93;11.00;;;12.60;27.20;;;;;;5052697;28;20445;-89
2022/11/01 00:40:49;;;;;;;24.83;12.10;;;12.60;27.20;;;;;;5054586;28;20998;-89
2022/11/01 00:43:50;;;;;;;23.10;11.20;;;12.60;29.30;;;;;;5053396;28;20187;-89
2022/11/01 00:46:38;;;;;;;25.80;11.50;;;12.50;32.70;;;;;;5056082;28;20434;-85
2022/11/01 00:49:20;;;;;;;22.33;12.40;;;12.60;35.00;;;;;;5041351;28;20420;-84
2022/11/01 00:51:51;;;;;;;22.50;10.40;;;12.60;32.90;;;;;;5041829;28;20483;-84
2022/11/01 00:54:20;;;;;;;38.47;12.13;;;12.60;30.80;;;;;;5036267;28;20451;-84
2022/11/01 00:57:20;;;;;;;21.03;11.30;;;12.60;28.40;;;;;;5054798;28;20975;-84
2022/11/01 01:00:14;;;;;;;53.17;12.13;;;12.60;31.00;;;;;;5055009;28;20424;-84
2022/11/01 01:03:20;;;;;;;23.13;12.03;;;12.60;32.30;;;;;;5049178;28;20422;-85
2022/11/01 01:05:51;;;;;;;33.50;12.00;;;12.70;32.40;;;;;;5049668;28;20514;-84
2022/11/01 01:08:38;;;;;;;26.33;11.47;;;12.70;29.40;;;;;;5050578;28;20423;-84
2022/11/01 01:11:26;;;;;;;27.70;12.57;;;12.70;28.70;;;;;;5051446;28;20930;-84
2022/11/01 01:13:52;;;;;;;32.60;11.20;;;12.60;29.40;;;;;;5044324;28;20507;-85
2022/11/01 01:16:23;;;;;;;25.90;10.87;;;12.70;32.50;;;;;;5054342;28;20425;-85
2022/11/01 01:19:20;;;;;;;21.57;10.40;;;12.70;30.80;;;;;;5044069;28;20180;-85
2022/11/01 01:21:50;;;;;;;33.20;11.47;;;12.70;33.40;;;;;;5036620;28;20514;-85
2022/11/01 01:24:50;;;;;;;18.33;9.93;;;12.70;34.00;;;;;;5040481;28;20423;-84
2022/11/01 01:27:50;;;;;;;26.23;11.00;;;12.70;34.40;;;;;;5042786;28;20458;-84
2022/11/01 01:33:56;;;;;;;18.80;10.10;;;12.70;29.30;;;;;;5046650;28;20588;-89
2022/11/01 01:39:44;;;;;;;21.70;10.90;;;12.70;32.50;;;;;;5046695;28;20465;-89
2022/11/01 01:42:49;;;;;;;21.40;10.60;;;12.80;31.40;;;;;;5064142;28;20424;-89
2022/11/01 01:45:27;;;;;;;18.90;10.13;;;12.80;33.00;;;;;;5054721;28;20430;-89
2022/11/01 01:51:50;;;;;;;19.93;10.40;;;12.70;30.10;;;;;;5046005;28;20500;-89
2022/11/01 01:54:50;;;;;;;19.90;10.30;;;12.70;33.80;;;;;;5052162;28;20453;-89
2022/11/01 01:57:20;;;;;;;23.87;10.37;;;12.70;34.60;;;;;;5052045;28;20501;-89
2022/11/01 02:00:20;;;;;;;29.00;10.97;;;12.70;33.20;;;;;;5054243;28;21008;-89
2022/11/01 02:02:50;;;;;;;26.97;12.40;;;12.80;33.80;;;;;;5054546;28;20433;-89
2022/11/01 02:05:52;;;;;;;30.53;11.40;;;12.80;31.90;;;;;;5041918;28;20441;-89
2022/11/01 02:08:26;;;;;;;18.53;10.60;;;12.80;29.50;;;;;;5051575;28;20517;-89
2022/11/01 02:14:15;;;;;;;21.47;11.17;;;12.90;26.70;;;;;;5048008;28;20468;-89
2022/11/01 02:17:26;;;;;;;23.70;11.20;;;12.90;27.60;;;;;;5053581;28;20429;-89
2022/11/01 02:20:08;;;;;;;16.37;10.57;;;12.90;31.50;;;;;;5050191;28;20474;-85
2022/11/01 02:23:19;;;;;;;24.77;10.60;;;12.90;33.80;;;;;;5045039;28;20468;-85
2022/11/01 02:26:05;;;;;;;27.27;11.10;;;12.90;30.30;;;;;;5046794;28;20460;-84
2022/11/01 02:29:20;;;;;;;20.83;10.93;;;12.90;31.30;;;;;;5033527;28;20415;-84
2022/11/01 02:32:20;;;;;;;21.27;10.40;;;13.00;31.40;;;;;;5045565;28;20427;-84
2022/11/01 02:38:40;;;;;;;27.90;11.73;;;12.80;38.40;;;;;;5038876;28;20471;-85
2022/11/01 02:41:50;;;;;;;31.30;10.70;;;12.90;44.50;;;;;;5053552;28;20440;-85
2022/11/01 02:44:30;;;;;;;18.87;10.30;;;12.90;44.40;;;;;;5054310;28;20418;-85
2022/11/01 02:50:18;;;;;;;33.17;11.83;;;13.00;44.60;;;;;;5033639;28;20411;-84
2022/11/01 02:52:51;;;;;;;25.63;12.17;;;13.00;44.60;;;;;;5053521;28;20425;-84
2022/11/01 02:55:28;;;;;;;28.23;12.30;;;13.10;44.80;;;;;;5042868;28;20429;-85
2022/11/01 02:58:20;;;;;;;20.80;11.37;;;13.10;48.70;;;;;;5049201;28;20477;-85
2022/11/01 03:04:22;;;;;;;20.63;10.70;;;13.20;35.20;;;;;;5047726;28;20402;-89
2022/11/01 03:06:57;;;;;;;31.80;10.67;;;13.20;31.30;;;;;;5054068;28;20944;-90
2022/11/01 03:09:50;;;;;;;26.90;11.37;;;13.10;31.90;;;;;;5053306;28;20929;-90
2022/11/01 03:12:27;;;;;;;20.10;10.70;;;13.20;32.30;;;;;;5066556;28;20433;-90
2022/11/01 03:15:25;;;;;;;31.47;11.07;;;13.20;31.40;;;;;;5041418;28;20540;-89
2022/11/01 03:18:25;;;;;;;25.13;11.70;;;13.20;30.60;;;;;;5047824;28;20425;-89
2022/11/01 03:21:00;;;;;;;23.37;11.47;;;13.20;30.00;;;;;;5049159;28;20430;-90
2022/11/01 03:23:36;;;;;;;20.43;10.87;;;13.20;30.70;;;;;;5045253;28;20406;-90
2022/11/01 03:26:26;;;;;;;27.27;11.03;;;13.10;30.30;;;;;;5055795;28;20422;-89
2022/11/01 03:29:21;;;;;;;17.00;10.93;;;13.10;32.60;;;;;;5053093;28;20402;-90
2022/11/01 03:31:53;;;;;;;24.43;12.87;;;13.20;33.80;;;;;;5045161;28;20436;-89
2022/11/01 03:34:39;;;;;;;26.53;11.13;;;13.20;33.30;;;;;;5042468;28;20459;-84
2022/11/01 03:37:50;;;;;;;27.47;12.17;;;13.30;32.00;;;;;;5044589;28;20947;-84
2022/11/01 03:40:24;;;;;;;24.40;10.80;;;13.30;30.20;;;;;;5046868;28;20423;-84
2022/11/01 03:42:53;;;;;;;24.10;11.80;;;13.30;30.80;;;;;;5033679;28;20435;-84
2022/11/01 03:45:24;;;;;;;24.20;11.80;;;13.30;30.70;;;;;;5057192;28;20410;-84
2022/11/01 03:47:50;;;;;;;22.50;11.80;;;13.30;29.40;;;;;;5055783;28;20511;-84
2022/11/01 03:50:23;;;;;;;33.00;13.73;;;13.30;31.20;;;;;;5056530;28;20414;-84
2022/11/01 03:52:51;;;;;;;21.23;11.80;;;13.40;34.80;;;;;;5055496;28;20484;-85
2022/11/01 03:55:20;;;;;;;32.20;11.97;;;13.40;41.10;;;;;;5053680;28;20388;-84
2022/11/01 03:57:51;;;;;;;29.93;12.83;;;13.40;48.90;;;;;;5054689;28;20537;-84
2022/11/01 04:03:50;;;;;;;24.23;13.23;;;13.50;45.00;;;;;;5043971;28;20501;-85
2022/11/01 04:06:20;;;;;;;30.07;13.33;;;13.60;45.10;;;;;;5047338;28;20432;-84
2022/11/01 04:09:08;;;;;;;24.47;12.07;;;13.50;45.00;;;;;;5055995;28;20618;-85
2022/11/01 04:11:44;;;;;;;28.03;12.60;;;13.60;45.10;;;;;;5042793;28;20459;-84
2022/11/01 04:20:51;;;;;;;36.83;15.27;;;13.60;45.10;;;;;;5044437;28;20393;-89
2022/11/01 04:26:50;;;;;;;34.53;14.80;;;13.70;45.20;;;;;;5050129;28;20525;-89
2022/11/01 04:29:50;;;;;;;36.03;16.50;;;13.70;47.80;;;;;;5048310;28;20421;-89
2022/11/01 04:32:20;;;;;;;38.47;15.93;;;13.80;57.60;;;;;;5045836;28;20421;-90
2022/11/01 04:34:56;;;;;;;30.43;15.90;;;13.80;64.30;;;;;;5056066;28;20472;-77
2022/11/01 04:37:26;;;;;;;38.17;17.83;;;13.90;71.70;;;;;;5055112;28;20774;-77
2022/11/01 04:39:52;;;;;;;33.77;16.83;;;14.00;79.80;;;;;;5050766;28;20933;-77
2022/11/01 04:42:20;;;;;;;39.37;15.97;;;14.10;83.20;;;;;;5047374;28;20425;-77
2022/11/01 04:44:50;;;;;;;34.63;17.10;;;14.20;83.00;;;;;;5039595;28;20656;-77
2022/11/01 04:47:20;;;;;;;30.87;15.33;;;14.30;81.40;;;;;;5049197;28;20963;-78
2022/11/01 04:49:50;;;;;;;43.67;17.90;;;14.20;85.50;;;;;;5055951;28;20767;-78
2022/11/01 04:52:26;;;;;;;50.17;16.43;;;14.30;89.60;;;;;;5042702;28;20901;-78
2022/11/01 04:54:52;;;;;;;39.00;15.97;;;14.30;91.10;;;;;;5047073;28;20428;-77
2022/11/01 04:57:23;;;;;;;34.57;15.90;;;14.40;90.30;;;;;;5046258;28;20429;-78
2022/11/01 04:59:51;;;;;;;34.27;17.17;;;14.50;91.60;;;;;;5049432;28;20175;-77
2022/11/01 05:02:22;;;;;;;40.57;16.93;;;14.50;91.60;;;;;;5050159;28;20519;-78
2022/11/01 05:04:49;;;;;;;39.60;18.10;;;14.50;90.90;;;;;;5042467;28;20441;-78
2022/11/01 05:07:20;;;;;;;31.70;16.27;;;14.60;91.50;;;;;;5044773;28;20430;-78
2022/11/01 05:09:46;;;;;;;37.53;16.93;;;14.60;90.90;;;;;;5047963;28;20426;-78
2022/11/01 05:12:20;;;;;;;37.53;15.77;;;14.70;92.00;;;;;;5036116;28;20418;-77
2022/11/01 05:14:50;;;;;;;32.33;15.77;;;14.70;91.30;;;;;;5055247;28;20696;-78
2022/11/01 05:17:16;;;;;;;41.10;15.20;;;14.70;94.40;;;;;;5055245;28;20445;-78
2022/11/01 05:19:42;;;;;;;31.00;15.10;;;14.80;91.50;;;;;;5050802;28;20476;-78
2022/11/01 05:22:07;;;;;;;34.00;15.10;;;14.80;91.00;;;;;;5052842;28;20172;-77
2022/11/01 05:24:51;;;;;;;31.50;14.80;;;14.80;90.00;;;;;;5045072;28;20528;-78
2022/11/01 05:27:20;;;;;;;27.03;14.10;;;14.90;90.60;;;;;;5051538;28;20175;-77
2022/11/01 05:29:50;;;;;;;28.50;14.43;;;14.90;91.00;;;;;;5055665;28;20799;-78
2022/11/01 05:32:20;;;;;;;36.90;13.70;;;14.90;90.80;;;;;;5055183;28;20812;-77
2022/11/01 05:34:50;;;;;;;27.17;14.10;;;14.90;91.50;;;;;;5048088;28;20780;-78
2022/11/01 05:37:20;;;;;;;30.47;14.83;;;15.00;91.80;;;;;;5048805;28;20395;-78
2022/11/01 05:39:50;;;;;;;28.23;13.77;;;15.00;90.60;;;;;;5055277;28;20394;-78
2022/11/01 05:42:20;;;;;;;36.67;14.17;;;15.00;90.00;;;;;;5055291;28;20380;-79
2022/11/01 05:44:47;;;;;;;29.47;13.00;;;15.10;89.20;;;;;;5042410;28;20432;-78
2022/11/01 05:47:50;;;;;;;31.87;14.03;;;15.10;86.70;;;;;;5055233;28;20422;-78
2022/11/01 05:50:20;;;;;;;28.43;13.50;;;15.10;86.30;;;;;;5048195;28;20419;-78
2022/11/01 05:53:04;;;;;;;30.57;15.27;;;15.10;83.00;;;;;;5046426;28;20474;-80
2022/11/01 05:55:33;;;;;;;32.90;14.57;;;15.10;86.20;;;;;;5050318;28;20433;-78
2022/11/01 05:58:26;;;;;;;35.03;14.10;;;15.00;87.20;;;;;;5043355;28;20411;-86
2022/11/01 06:01:26;;;;;;;27.67;15.47;;;15.10;87.10;;;;;;5058789;28;20413;-84
2022/11/01 06:04:08;;;;;;;31.03;15.33;;;15.10;86.70;;;;;;5053981;28;20418;-84
2022/11/01 06:06:38;;;;;;;31.07;15.07;;;15.00;87.50;;;;;;5052041;28;20420;-84
2022/11/01 06:09:32;;;;;;;40.40;15.37;;;15.00;90.10;;;;;;5045537;28;20771;-84
2022/11/01 06:15:25;;;;;;;27.90;15.00;;;15.20;83.60;;;;;;5044573;28;20644;-84
2022/11/01 06:18:02;;;;;;;36.03;15.43;;;15.30;79.30;;;;;;5054238;28;20418;-83
2022/11/01 06:20:38;;;;;;;42.00;16.77;;;15.20;77.60;;;;;;5050355;28;20468;-81
2022/11/01 06:23:09;;;;;;;39.93;17.67;;;15.10;83.70;;;;;;5057943;28;20390;-80
2022/11/01 06:25:58;;;;;;;32.20;15.63;;;15.10;86.50;;;;;;5045917;28;20410;-81
2022/11/01 06:28:24;;;;;;;28.00;16.73;;;15.20;87.60;;;;;;5042047;28;20447;-81
2022/11/01 06:30:49;;;;;;;31.17;16.70;;;15.20;85.70;;;;;;5052102;28;20521;-80
2022/11/01 06:33:15;;;;;;;32.37;17.10;;;15.30;81.40;;;;;;5046634;28;20333;-80
2022/11/01 06:36:21;;;;;;;30.73;17.17;;;15.20;82.20;;;;;;5046046;28;20177;-87
2022/11/01 06:39:02;;;;;;;38.40;16.57;;;15.20;83.00;;;;;;5044471;28;20188;-87
2022/11/01 06:41:38;;;;;;;32.60;16.53;;;15.20;85.40;;;;;;5048545;28;20418;-87
2022/11/01 06:50:52;;;;;;;35.63;16.77;;;15.10;83.80;;;;;;5047691;28;20509;-81
2022/11/01 06:53:23;;;;;;;31.00;14.63;;;15.20;84.40;;;;;;5048958;28;20480;-81
2022/11/01 06:55:51;;;;;;;31.80;15.47;;;15.20;78.50;;;;;;5050878;28;20842;-80
2022/11/01 06:58:26;;;;;;;29.93;14.50;;;15.20;80.20;;;;;;5049809;28;20537;-82
2022/11/01 07:01:08;;;;;;;30.13;15.73;;;15.20;80.80;;;;;;5051431;28;20846;-82
2022/11/01 07:03:38;;;;;;;34.10;15.93;;;15.10;82.80;;;;;;5045510;28;20413;-79
2022/11/01 07:06:08;;;;;;;30.60;15.83;;;15.20;83.10;;;;;;5047878;28;21037;-79
2022/11/01 07:12:08;;;;;;;25.80;14.87;;;15.20;82.40;;;;;;5047851;28;20516;-85
2022/11/01 07:14:38;;;;;;;31.13;14.70;;;15.20;81.20;;;;;;5050367;28;20811;-87
2022/11/01 07:17:08;;;;;;;27.63;14.10;;;15.20;78.70;;;;;;5045006;28;20510;-84
2022/11/01 07:19:44;;;;;;;29.60;14.67;;;15.20;78.50;;;;;;5043849;28;20418;-84
2022/11/01 07:23:02;;;;;;;27.93;14.57;;;15.30;79.60;;;;;;5047858;28;20476;-79
2022/11/01 07:25:39;;;;;;;33.13;14.47;;;15.30;74.50;;;;;;5050007;28;20417;-79
2022/11/01 07:28:09;;;;;;;29.17;13.30;;;15.40;73.80;;;;;;5040827;28;20977;-79
2022/11/01 07:30:38;;;;;;;24.13;12.90;;;15.40;65.70;;;;;;5035152;28;20418;-78
2022/11/01 07:33:14;;;;;;;31.97;13.50;;;15.50;66.40;;;;;;5052033;28;20504;-79
2022/11/01 07:35:44;;;;;;;25.97;13.53;;;15.50;61.40;;;;;;5047562;28;20854;-78
2022/11/01 07:38:26;;;;;;;20.73;12.20;;;15.60;61.60;;;;;;5034725;28;20410;-79
2022/11/01 07:40:56;;;;;;;40.50;14.23;;;15.70;47.00;;;;;;5035049;28;20411;-78
2022/11/01 07:43:34;;;;;;;30.07;11.63;;;15.60;47.00;;;;;;5033400;28;20431;-78
2022/11/01 07:46:04;;;;;;;21.57;11.70;;;15.70;47.00;;;;;;5045190;28;20427;-78
2022/11/01 07:49:02;;;;;;;19.67;11.73;;;15.60;46.90;;;;;;5037493;28;20849;-78
2022/11/01 07:51:50;;;;;;;16.70;10.57;;;15.70;47.20;;;;;;5038325;28;20440;-79
2022/11/01 07:54:26;;;;;;;17.00;10.20;;;15.80;47.10;;;;;;5034683;28;20438;-78
2022/11/01 07:57:20;;;;;;;17.70;10.73;;;15.80;47.10;;;;;;5040149;28;20891;-78
2022/11/01 07:59:50;;;;;;;18.43;10.70;;;15.90;47.20;;;;;;5043219;28;20502;-78
2022/11/01 08:02:20;;;;;;;17.13;10.67;;;16.00;47.30;;;;;;5043626;28;20462;-78
2022/11/01 08:04:46;;;;;;;16.80;10.23;;;16.00;47.50;;;;;;5052839;28;20862;-79
2022/11/01 08:07:20;;;;;;;16.20;9.53;;;16.10;47.40;;;;;;5044629;28;20472;-85
2022/11/01 08:19:51;;;;;;;14.97;9.63;;;16.30;47.40;;;;;;5052185;28;20402;-84
2022/11/01 08:25:45;;;;;;;18.27;8.50;;;16.60;26.80;;;;;;5045468;28;20301;-85
2022/11/01 08:28:17;;;;;;;19.17;9.60;;;16.60;20.60;;;;;;5053097;28;20646;-85
2022/11/01 08:30:47;;;;;;;17.10;9.40;;;16.60;19.80;;;;;;5056597;28;20914;-85
2022/11/01 08:33:13;;;;;;;13.60;8.57;;;16.70;19.50;;;;;;5040174;28;20405;-72
2022/11/01 08:35:39;;;;;;;12.73;8.20;;;16.80;16.00;;;;;;5049356;28;20902;-71
2022/11/01 08:38:05;;;;;;;15.87;8.37;;;17.00;13.70;;;;;;5054240;28;20419;-70
2022/11/01 08:40:32;;;;;;;12.97;7.60;;;17.00;8.80;;;;;;5049600;28;20216;-70
2022/11/01 08:42:58;;;;;;;16.63;7.73;;;17.10;9.00;;;;;;5045629;28;20403;-71
2022/11/01 08:45:24;;;;;;;14.67;7.37;;;17.00;5.80;;;;;;5055846;28;20455;-71
2022/11/01 08:47:58;;;;;;;9.30;7.13;;;16.90;6.50;;;;;;5051770;28;20815;-71
2022/11/01 08:50:24;;;;;;;13.83;7.00;;;17.00;7.50;;;;;;5051321;28;20733;-71
2022/11/01 08:52:50;;;;;;;13.70;7.23;;;17.00;9.50;;;;;;5056050;28;20491;-71
2022/11/01 08:55:16;;;;;;;18.00;6.60;;;17.10;2.40;;;;;;5052635;28;20205;-71
2022/11/01 08:57:41;;;;;;;11.00;6.33;;;17.10;1.10;;;;;;5055828;28;20191;-71
2022/11/01 09:00:09;;;;;;;9.70;6.40;;;17.00;1.00;;;;;;5051211;28;20694;-71
2022/11/01 09:02:34;;;;;;;13.83;7.37;;;17.00;1.30;;;;;;5054396;28;20173;-71
2022/11/01 09:05:05;;;;;;;17.27;6.23;;;16.90;2.30;;;;;;5054282;28;20441;-71
2022/11/01 09:07:34;;;;;;;14.47;6.60;;;16.90;3.00;;;;;;5045937;28;20645;-70
2022/11/01 09:09:59;;;;;;;9.53;6.43;;;16.80;5.10;;;;;;5053548;28;20436;-70
2022/11/01 09:12:26;;;;;;;8.80;6.10;;;17.00;3.10;;;;;;5046717;28;20890;-70
2022/11/01 09:14:53;;;;;;;12.80;6.27;;;16.90;3.20;;;;;;5047867;28;20205;-70
2022/11/01 09:17:18;;;;;;;8.67;5.90;;;17.00;1.70;;;;;;5049614;28;20387;-71
2022/11/01 09:19:44;;;;;;;12.90;6.00;;;17.00;1.00;;;;;;5044958;28;20876;-71
2022/11/01 09:22:10;;;;;;;9.27;5.87;;;16.90;1.00;;;;;;5044561;28;20178;-70
2022/11/01 09:24:35;;;;;;;16.10;5.00;;;16.90;1.00;;;;;;5054875;28;20223;-71
2022/11/01 09:27:01;;;;;;;8.47;5.50;;;16.90;1.00;;;;;;5055370;28;20566;-71
2022/11/01 09:29:27;;;;;;;9.30;5.80;;;16.80;1.10;;;;;;5054785;28;20178;-70
2022/11/01 09:31:53;;;;;;;8.27;5.87;;;16.90;1.00;;;;;;5044249;28;20444;-72
2022/11/01 09:34:20;;;;;;;11.27;5.40;;;16.90;1.00;;;;;;5055097;28;20643;-78
2022/11/01 09:36:46;;;;;;;9.00;5.93;;;16.80;1.00;;;;;;5050424;28;20446;-71
2022/11/01 09:39:15;;;;;;;10.03;5.90;;;16.60;1.00;;;;;;5055573;28;20423;-70
2022/11/01 09:41:48;;;;;;;17.87;5.77;;;16.60;1.00;;;;;;5053469;28;20422;-70
2022/11/01 09:44:22;;;;;;;10.50;5.90;;;16.70;1.00;;;;;;5051280;28;20390;-71
2022/11/01 09:46:53;;;;;;;7.37;5.07;;;16.50;1.00;;;;;;5052293;28;20893;-70
2022/11/01 09:49:26;;;;;;;10.43;5.10;;;16.50;1.00;;;;;;5050482;28;20402;-70
2022/11/01 09:51:52;;;;;;;9.33;3.80;;;16.50;1.00;;;;;;5049515;28;20436;-70
2022/11/01 09:54:22;;;;;;;4.90;3.33;;;16.30;1.00;;;;;;5049569;28;20470;-71
2022/11/01 09:56:59;;;;;;;7.07;3.67;;;16.40;1.00;;;;;;5044908;28;20799;-71
2022/11/01 09:59:55;;;;;;;9.93;3.20;;;16.30;1.00;;;;;;5044507;28;20920;-71
2022/11/01 10:02:25;;;;;;;3.87;2.93;;;16.40;1.00;;;;;;5043514;28;20434;-71
2022/11/01 10:05:02;;;;;;;12.80;3.40;;;16.40;1.00;;;;;;5050764;28;20480;-71
2022/11/01 10:07:55;;;;;;;7.43;3.20;;;16.30;1.00;;;;;;5051570;28;20509;-71
2022/11/01 10:10:50;;;;;;;7.00;2.20;;;16.50;1.00;;;;;;5053079;28;20419;-70
2022/11/01 10:13:26;;;;;;;7.10;2.50;;;16.60;1.00;;;;;;4973330;28;20405;-71
2022/11/01 10:15:59;;;;;;;3.13;2.23;;;16.80;1.00;;;;;;4972065;28;20448;-70
2022/11/01 10:18:28;;;;;;;6.50;2.40;;;16.80;1.00;;;;;;4968364;28;20421;-70
2022/11/01 10:21:01;;;;;;;3.97;2.80;;;16.70;1.00;;;;;;4971413;28;20871;-70
2022/11/01 10:23:46;;;;;;;5.00;2.27;;;16.80;1.00;;;;;;4973622;28;20954;-71
2022/11/01 10:26:20;;;;;;;2.50;1.60;;;16.70;1.00;;;;;;4973280;28;20435;-73
2022/11/01 10:29:22;;;;;;;3.33;1.80;;;16.60;1.00;;;;;;4990193;28;20430;-79
2022/11/01 10:32:08;;;;;;;6.33;1.60;;;16.70;1.00;;;;;;4973043;28;20449;-77
2022/11/01 10:34:45;;;;;;;4.13;1.80;;;16.60;1.00;;;;;;4973562;28;20537;-76
2022/11/01 10:37:25;;;;;;;6.33;1.60;;;16.50;1.00;;;;;;4959719;28;20454;-76
2022/11/01 10:40:02;;;;;;;1.37;1.00;;;16.60;1.00;;;;;;4957629;28;20410;-81
2022/11/01 10:42:28;;;;;;;2.70;1.30;;;16.60;1.00;;;;;;4973293;28;20439;-81
2022/11/01 10:45:17;;;;;;;2.70;1.03;;;16.60;1.00;;;;;;4955632;28;20457;-80
2022/11/01 10:47:45;;;;;;;4.87;1.03;;;16.60;1.00;;;;;;4961639;28;20426;-81
2022/11/01 10:50:22;;;;;;;6.60;1.10;;;16.70;1.00;;;;;;5015891;28;20762;-81
2022/11/01 10:53:20;;;;;;;3.13;0.90;;;16.70;1.00;;;;;;5038570;28;20540;-81
2022/11/01 10:55:56;;;;;;;3.10;0.87;;;16.80;1.00;;;;;;5046057;28;20765;-81
2022/11/01 10:58:40;;;;;;;1.87;1.00;;;16.90;1.00;;;;;;5053948;28;20422;-81
2022/11/01 11:01:44;;;;;;;3.47;1.00;;;16.90;1.00;;;;;;5044068;28;20434;-80
2022/11/01 11:04:23;;;;;;;2.90;0.70;;;17.00;1.00;;;;;;5041046;28;20408;-79
2022/11/01 11:06:50;;;;;;;2.50;0.80;;;17.10;1.00;;;;;;5047333;28;20416;-81
2022/11/01 11:09:21;;;;;;;6.20;0.90;;;17.20;1.00;;;;;;5047597;28;20572;-77
2022/11/01 11:11:48;;;;;;;3.37;1.10;;;17.30;1.00;;;;;;5046296;28;20423;-79
2022/11/01 11:14:17;;;;;;;7.20;1.00;;;17.40;1.00;;;;;;5050568;28;20426;-78
2022/11/01 11:16:56;;;;;;;2.30;1.33;;;17.40;1.00;;;;;;5046370;28;20930;-78
2022/11/01 11:19:37;;;;;;;1.93;0.70;;;17.30;1.00;;;;;;5034045;28;20383;-78
2022/11/01 11:22:06;;;;;;;1.53;0.70;;;17.40;1.00;;;;;;5046974;28;20495;-78
2022/11/01 11:24:42;;;;;;;1.37;0.70;;;17.50;1.00;;;;;;5034185;28;20404;-78
2022/11/01 11:27:24;;;;;;;2.97;0.80;;;17.50;1.00;;;;;;5039202;28;20416;-78
2022/11/01 11:30:12;;;;;;;0.90;0.60;;;17.30;1.00;;;;;;5051638;28;20430;-79
2022/11/01 11:32:47;;;;;;;5.00;0.90;;;17.20;1.00;;;;;;5044767;28;20414;-79
2022/11/01 11:35:18;;;;;;;5.77;0.80;;;17.40;1.00;;;;;;5046560;28;20950;-79
2022/11/01 11:38:13;;;;;;;3.37;1.00;;;17.40;1.00;;;;;;5033759;28;20387;-78
2022/11/01 11:40:41;;;;;;;3.20;0.80;;;17.50;1.00;;;;;;5033511;28;20391;-79
2022/11/01 11:43:19;;;;;;;2.03;0.70;;;17.50;1.00;;;;;;5046275;28;20796;-78
2022/11/01 11:46:05;;;;;;;0.70;0.70;;;17.50;1.00;;;;;;5052893;28;20400;-79
2022/11/01 11:48:33;;;;;;;2.63;0.60;;;17.60;1.00;;;;;;5044357;28;20412;-78
2022/11/01 11:51:09;;;;;;;3.57;0.97;;;17.60;1.00;;;;;;5047569;28;20419;-78
2022/11/01 11:54:03;;;;;;;1.87;0.80;;;17.60;1.00;;;;;;5046044;28;20459;-79
2022/11/01 11:56:39;;;;;;;7.30;0.87;;;17.60;1.00;;;;;;5042464;28;20407;-78
2022/11/01 11:59:20;;;;;;;3.03;0.70;;;17.60;1.00;;;;;;5033333;28;20419;-79
2022/11/01 12:02:17;;;;;;;2.20;0.70;;;17.80;1.00;;;;;;5047864;28;20407;-78
2022/11/01 12:05:14;;;;;;;4.50;0.80;;;17.90;1.00;;;;;;5050048;28;20429;-79
2022/11/01 12:07:54;;;;;;;3.83;0.97;;;18.00;1.00;;;;;;5050172;28;20436;-80
2022/11/01 12:10:33;;;;;;;5.00;0.80;;;18.00;1.00;;;;;;5055395;28;20902;-79
2022/11/01 12:13:00;;;;;;;2.90;0.77;;;18.00;1.00;;;;;;5053993;28;20429;-79
2022/11/01 12:15:39;;;;;;;6.50;0.90;;;18.00;1.00;;;;;;5042290;28;20501;-79
2022/11/01 12:18:23;;;;;;;2.40;1.00;;;17.90;1.00;;;;;;5055674;28;20501;-79
2022/11/01 12:20:51;;;;;;;1.80;0.80;;;17.90;1.00;;;;;;5058029;28;20802;-78
2022/11/01 12:23:38;;;;;;;4.03;1.30;;;17.90;1.00;;;;;;5063844;28;20833;-79
2022/11/01 12:26:17;;;;;;;2.87;0.70;;;17.90;1.00;;;;;;5049484;28;20384;-80
2022/11/01 12:29:08;;;;;;;0.97;0.73;;;17.90;1.00;;;;;;5050303;28;20392;-80
2022/11/01 12:31:36;;;;;;;1.63;0.77;;;18.00;1.00;;;;;;5048570;28;20785;-80
2022/11/01 12:34:39;;;;;;;6.53;1.23;;;18.00;1.00;;;;;;5036940;28;20540;-79
2022/11/01 12:37:29;;;;;;;4.17;0.70;;;18.00;1.00;;;;;;5055443;28;20500;-80
2022/11/01 12:39:58;;;;;;;7.93;0.70;;;18.00;1.00;;;;;;5043328;28;20972;-80
2022/11/01 12:42:48;;;;;;;2.47;0.70;;;18.00;1.00;;;;;;5058183;28;20435;-80
2022/11/01 12:45:44;;;;;;;2.23;0.90;;;18.10;1.00;;;;;;5048831;28;20429;-81
2022/11/01 12:48:27;;;;;;;2.90;0.90;;;18.20;1.00;;;;;;5052808;28;20474;-80
2022/11/01 12:51:12;;;;;;;2.30;0.80;;;18.30;1.00;;;;;;5044473;28;20412;-80
2022/11/01 12:53:48;;;;;;;14.83;1.77;;;18.20;1.00;;;;;;5042860;28;20428;-80
2022/11/01 12:56:15;;;;;;;2.70;0.80;;;18.30;1.00;;;;;;5054747;28;20442;-78
2022/11/01 12:58:53;;;;;;;5.20;0.73;;;18.30;1.00;;;;;;5056077;28;20466;-79
2022/11/01 13:01:59;;;;;;;2.97;0.80;;;18.20;1.00;;;;;;5049720;28;20425;-79
2022/11/01 13:04:40;;;;;;;5.07;0.90;;;18.20;1.00;;;;;;5052854;28;20751;-79
2022/11/01 13:07:28;;;;;;;4.87;0.70;;;18.20;1.00;;;;;;5051514;28;20482;-79
2022/11/01 13:10:09;;;;;;;3.03;0.90;;;18.20;1.00;;;;;;5045336;28;20451;-82
2022/11/01 13:12:57;;;;;;;3.37;0.80;;;18.00;1.00;;;;;;5055770;28;20416;-80
2022/11/01 13:15:39;;;;;;;2.50;0.83;;;18.00;1.00;;;;;;5040431;28;20867;-79
2022/11/01 13:18:32;;;;;;;1.93;0.87;;;17.90;1.00;;;;;;5049403;28;20408;-80
2022/11/01 13:21:14;;;;;;;1.53;0.70;;;17.90;1.00;;;;;;5048131;28;20555;-80
2022/11/01 13:24:02;;;;;;;1.00;0.60;;;17.90;1.00;;;;;;5049038;28;20392;-81
2022/11/01 13:26:40;;;;;;;4.47;1.00;;;17.90;1.00;;;;;;5052038;28;20426;-80
2022/11/01 13:29:27;;;;;;;6.10;0.80;;;17.90;1.00;;;;;;5044905;28;20482;-80
2022/11/01 13:32:20;;;;;;;2.70;0.70;;;17.80;1.00;;;;;;5041154;28;20463;-80
2022/11/01 13:35:02;;;;;;;6.13;0.90;;;17.80;1.00;;;;;;5013573;28;20881;-80
2022/11/01 13:37:55;;;;;;;1.00;0.60;;;17.90;1.00;;;;;;5013606;28;20400;-80
2022/11/01 13:40:39;;;;;;;1.60;0.70;;;18.00;1.00;;;;;;5020007;28;20399;-79
2022/11/01 13:43:56;;;;;;;3.27;0.70;;;17.90;1.00;;;;;;5014583;28;20468;-79
2022/11/01 13:46:56;;;;;;;7.17;1.10;;;18.00;1.00;;;;;;5013595;28;20494;-79
2022/11/01 13:49:59;;;;;;;4.27;0.83;;;17.90;1.00;;;;;;5013237;28;20430;-79
2022/11/01 13:52:30;;;;;;;4.73;1.20;;;17.90;1.00;;;;;;4993019;28;20411;-79
2022/11/01 13:55:08;;;;;;;3.43;0.70;;;17.80;1.00;;;;;;5013671;28;20542;-79
2022/11/01 13:57:57;;;;;;;2.80;0.80;;;17.80;1.00;;;;;;4982187;28;20502;-79
2022/11/01 14:00:50;;;;;;;1.50;0.80;;;17.80;1.00;;;;;;5012816;28;20841;-78
2022/11/01 14:04:08;;;;;;;1.40;0.80;;;17.80;1.00;;;;;;5012812;28;20445;-78
2022/11/01 14:07:08;;;;;;;3.60;0.77;;;17.90;1.00;;;;;;5005093;28;20444;-81
2022/11/01 14:09:44;;;;;;;4.30;1.00;;;17.80;1.00;;;;;;5012868;28;20431;-78
2022/11/01 14:12:35;;;;;;;5.97;0.77;;;17.80;1.00;;;;;;5027933;28;20412;-80
2022/11/01 14:15:24;;;;;;;3.57;0.90;;;17.80;1.00;;;;;;5048027;28;20431;-79
2022/11/01 14:18:14;;;;;;;5.30;0.77;;;17.80;1.00;;;;;;5039872;28;20383;-85
2022/11/01 14:20:41;;;;;;;2.97;1.03;;;17.80;1.00;;;;;;5042072;28;20448;-79
2022/11/01 14:23:33;;;;;;;2.70;0.90;;;17.70;1.00;;;;;;5056637;28;20410;-80
2022/11/01 14:26:17;;;;;;;5.47;0.90;;;17.70;1.00;;;;;;5050517;28;20452;-80
2022/11/01 14:28:47;;;;;;;6.73;1.00;;;17.70;1.00;;;;;;5042641;28;20411;-80
2022/11/01 14:31:18;;;;;;;2.33;0.70;;;17.60;1.00;;;;;;5052119;28;20390;-80
2022/11/01 14:34:00;;;;;;;5.50;0.73;;;17.50;1.00;;;;;;5043787;28;21005;-81
2022/11/01 14:36:45;;;;;;;5.23;1.00;;;17.50;1.00;;;;;;5072171;28;20415;-80
2022/11/01 14:39:38;;;;;;;3.20;0.70;;;17.50;1.00;;;;;;5045875;28;20489;-80
2022/11/01 14:42:10;;;;;;;3.10;1.00;;;17.40;1.00;;;;;;5050195;28;20432;-80
2022/11/01 14:45:07;;;;;;;2.43;0.80;;;17.40;1.00;;;;;;5044333;28;20393;-79
2022/11/01 14:47:39;;;;;;;11.63;1.47;;;17.30;1.00;;;;;;5062959;28;20395;-79
2022/11/01 14:50:35;;;;;;;4.10;0.93;;;17.30;1.00;;;;;;5053903;28;20363;-80